Time;durP1;ratioP1;P1;durP2;ratioP2;P2;SDS_P1;SDS_P2;PMS_P1;PMS_P2;Temp;Humidity;BMP_temperature;BMP_pressure;BME280_temperature;BME280_humidity;BME280_pressure;Samples;Min_cycle;Max_cycle;Signal;HPM_P1;HPM_P2
2020/12/12 00:00:00;;;;;;;;;;;;;;;;;;5074955;28;20401;-67
2020/12/12 00:02:30;;;;;;;;;;;;;;;;;;5074796;28;19912;-67
2020/12/12 00:04:56;;;;;;;;;;;;;;;;;;5074619;28;19927;-68
2020/12/12 00:07:22;;;;;;;;;;;;;;;;;;5074784;28;19908;-67
2020/12/12 00:09:49;;;;;;;;;;;;;;;;;;5074214;28;19952;-67
2020/12/12 00:12:15;;;;;;;;;;;;;;;;;;5075144;28;19917;-71
2020/12/12 00:14:41;;;;;;;;;;;;;;;;;;5075105;28;19904;-72
2020/12/12 00:17:07;;;;;;;491.02;167.88;;;;;;;;;;5073885;28;20425;-72
2020/12/12 00:19:34;;;;;;;489.77;163.38;;;;;;;;;;5073209;28;20358;-72
2020/12/12 00:22:00;;;;;;;492.80;167.85;;;;;;;;;;5073124;28;20370;-72
2020/12/12 00:24:26;;;;;;;494.05;170.27;;;;;;;;;;5072887;28;20366;-71
2020/12/12 00:26:55;;;;;;;494.75;174.25;;;;;;;;;;5073010;28;20861;-72
2020/12/12 00:29:22;;;;;;;494.88;171.05;;;;;;;;;;5072984;28;20411;-72
2020/12/12 00:31:53;;;;;;;495.17;172.05;;;;;;;;;;5072594;28;20497;-72
2020/12/12 00:34:19;;;;;;;492.23;166.97;;;;;;;;;;5073248;28;20686;-72
2020/12/12 00:36:45;;;;;;;494.60;169.80;;;;;;;;;;5072596;28;20428;-72
2020/12/12 00:39:12;;;;;;;493.50;168.55;;;;;;;;;;5072839;28;20366;-72
2020/12/12 00:41:38;;;;;;;493.38;166.38;;;;;;;;;;5072743;28;20778;-72
2020/12/12 00:44:05;;;;;;;475.20;153.10;;;;;;;;;;5072494;28;20728;-72
2020/12/12 00:46:31;;;;;;;475.03;148.23;;;;;;;;;;5070317;28;20369;-73
2020/12/12 00:48:58;;;;;;;481.27;157.48;;;;;;;;;;5072448;28;20370;-72
2020/12/12 00:51:24;;;;;;;482.75;162.57;;;;;;;;;;5072316;28;20887;-72
2020/12/12 00:53:50;;;;;;;482.00;162.93;;;;;;;;;;5072302;28;20369;-72
2020/12/12 00:56:17;;;;;;;484.45;166.50;;;;;;;;;;5072638;28;20362;-72
2020/12/12 00:58:44;;;;;;;482.58;159.95;;;;;;;;;;5072555;28;20366;-72
2020/12/12 01:01:10;;;;;;;485.47;163.57;;;;;;;;;;5072535;28;20362;-72
2020/12/12 01:03:41;;;;;;;486.67;168.27;;;;;;;;;;5072276;28;20370;-72
2020/12/12 01:06:14;;;;;;;485.17;163.35;;;;;;;;;;5072258;28;20423;-71
2020/12/12 01:08:40;;;;;;;484.93;162.90;;;;;;;;;;5072240;28;20736;-72
2020/12/12 01:11:07;;;;;;;482.55;156.95;;;;;;;;;;5072111;28;20390;-72
2020/12/12 01:13:33;;;;;;;484.00;160.95;;;;;;;;;;5072150;28;20370;-73
2020/12/12 01:16:05;;;;;;;485.00;157.30;;;;;;;;;;5072219;28;20818;-72
2020/12/12 01:18:31;;;;;;;488.42;163.73;;;;;;;;;;5072093;28;20396;-72
2020/12/12 01:20:57;;;;;;;485.83;159.17;;;;;;;;;;5072011;28;20515;-71
2020/12/12 01:23:23;;;;;;;478.50;150.10;;;;;;;;;;5054350;28;20800;-72
2020/12/12 01:25:49;;;;;;;485.27;159.70;;;;;;;;;;5072341;28;20400;-72
2020/12/12 01:28:18;;;;;;;489.90;160.38;;;;;;;;;;5071914;28;20401;-73
2020/12/12 01:30:44;;;;;;;490.23;164.00;;;;;;;;;;5071766;28;20382;-73
2020/12/12 01:33:11;;;;;;;487.27;159.55;;;;;;;;;;5071901;28;20370;-73
2020/12/12 01:35:37;;;;;;;488.33;161.85;;;;;;;;;;5072876;28;20365;-72
2020/12/12 01:38:03;;;;;;;491.25;164.85;;;;;;;;;;5075845;28;20832;-74
2020/12/12 01:40:29;;;;;;;487.47;154.80;;;;;;;;;;5076212;28;20369;-73
2020/12/12 01:42:55;;;;;;;486.50;154.75;;;;;;;;;;5075836;28;20385;-73
2020/12/12 01:45:22;;;;;;;486.88;154.13;;;;;;;;;;5075935;28;20381;-73
2020/12/12 01:47:48;;;;;;;488.05;156.35;;;;;;;;;;5076119;28;20395;-73
2020/12/12 01:50:14;;;;;;;487.55;157.23;;;;;;;;;;5075691;28;20428;-73
2020/12/12 01:52:41;;;;;;;466.67;142.43;;;;;;;;;;5075092;28;20401;-73
2020/12/12 01:55:07;;;;;;;463.52;134.77;;;;;;;;;;5074972;28;20368;-73
2020/12/12 01:57:35;;;;;;;467.40;131.95;;;;;;;;;;5075455;28;20402;-73
2020/12/12 02:00:01;;;;;;;479.42;143.27;;;;;;;;;;5075842;28;20366;-73
2020/12/12 02:02:27;;;;;;;478.20;142.05;;;;;;;;;;5075445;28;20366;-72
2020/12/12 02:04:54;;;;;;;475.70;138.25;;;;;;;;;;5075410;28;20441;-73
2020/12/12 02:07:22;;;;;;;477.70;136.20;;;;;;;;;;5075641;28;20366;-73
2020/12/12 02:09:48;;;;;;;482.20;142.80;;;;;;;;;;5075325;28;20863;-72
2020/12/12 02:12:14;;;;;;;485.33;148.18;;;;;;;;;;5076079;28;20489;-72
2020/12/12 02:14:41;;;;;;;485.10;146.85;;;;;;;;;;5075203;28;20374;-72
2020/12/12 02:17:08;;;;;;;486.73;147.88;;;;;;;;;;5075496;28;20707;-72
2020/12/12 02:19:35;;;;;;;488.33;151.38;;;;;;;;;;5075459;28;20381;-73
2020/12/12 02:22:02;;;;;;;487.77;149.05;;;;;;;;;;5075090;28;20374;-72
2020/12/12 02:24:30;;;;;;;485.77;146.23;;;;;;;;;;5075148;28;20382;-72
2020/12/12 02:27:00;;;;;;;487.20;150.38;;;;;;;;;;5075392;28;20362;-73
2020/12/12 02:29:29;;;;;;;485.67;148.32;;;;;;;;;;5074979;28;20366;-72
2020/12/12 02:31:55;;;;;;;487.23;148.45;;;;;;;;;;5074942;28;20398;-73
2020/12/12 02:34:21;;;;;;;486.15;148.02;;;;;;;;;;5075197;28;20424;-72
2020/12/12 02:36:47;;;;;;;482.73;144.43;;;;;;;;;;5075118;28;20836;-73
2020/12/12 02:39:15;;;;;;;480.50;139.73;;;;;;;;;;5074777;28;20359;-72
2020/12/12 02:41:41;;;;;;;482.10;138.75;;;;;;;;;;5074615;28;20398;-73
2020/12/12 02:44:07;;;;;;;484.13;143.50;;;;;;;;;;5074692;28;20495;-73
2020/12/12 02:46:33;;;;;;;485.17;145.73;;;;;;;;;;5074651;28;20453;-73
2020/12/12 02:49:00;;;;;;;484.83;142.00;;;;;;;;;;5075234;28;20827;-72
2020/12/12 02:51:26;;;;;;;484.40;145.13;;;;;;;;;;5074452;28;20405;-72
2020/12/12 02:53:52;;;;;;;483.77;142.77;;;;;;;;;;5074537;28;20409;-73
2020/12/12 02:56:19;;;;;;;484.85;146.73;;;;;;;;;;5074788;28;20369;-73
2020/12/12 02:58:46;;;;;;;481.58;142.70;;;;;;;;;;5074508;28;20366;-72
2020/12/12 03:01:12;;;;;;;481.98;141.13;;;;;;;;;;5074378;28;20374;-72
2020/12/12 03:03:38;;;;;;;482.45;144.70;;;;;;;;;;5074643;28;20365;-72
2020/12/12 03:06:04;;;;;;;485.60;148.32;;;;;;;;;;5074576;28;20760;-72
2020/12/12 03:08:31;;;;;;;487.05;152.05;;;;;;;;;;5074339;28;20366;-72
2020/12/12 03:10:57;;;;;;;487.40;153.40;;;;;;;;;;5074160;28;20879;-73
2020/12/12 03:13:23;;;;;;;485.10;148.07;;;;;;;;;;5074264;28;20445;-72
2020/12/12 03:15:49;;;;;;;483.27;147.35;;;;;;;;;;5074069;28;20369;-73
2020/12/12 03:18:16;;;;;;;484.30;147.05;;;;;;;;;;5074407;28;20416;-72
2020/12/12 03:20:42;;;;;;;485.10;150.93;;;;;;;;;;5074095;28;20461;-72
2020/12/12 03:23:08;;;;;;;486.42;152.73;;;;;;;;;;5074039;28;20366;-72
2020/12/12 03:25:35;;;;;;;485.58;152.02;;;;;;;;;;5074254;28;20366;-71
2020/12/12 03:28:01;;;;;;;486.58;155.63;;;;;;;;;;5074041;28;20860;-73
2020/12/12 03:30:27;;;;;;;486.75;153.93;;;;;;;;;;5073918;28;20366;-72
2020/12/12 03:32:53;;;;;;;485.80;152.88;;;;;;;;;;5073855;28;20427;-73
2020/12/12 03:35:19;;;;;;;487.20;153.98;;;;;;;;;;5074091;28;20709;-72
2020/12/12 03:37:46;;;;;;;485.30;148.63;;;;;;;;;;5073764;28;20374;-72
2020/12/12 03:40:12;;;;;;;482.70;146.45;;;;;;;;;;5073626;28;20359;-73
2020/12/12 03:42:38;;;;;;;482.40;147.02;;;;;;;;;;5073362;28;20413;-72
2020/12/12 03:45:04;;;;;;;482.67;143.85;;;;;;;;;;5073852;28;20380;-72
2020/12/12 03:47:31;;;;;;;482.83;145.68;;;;;;;;;;5073997;28;20850;-72
2020/12/12 03:49:57;;;;;;;484.48;146.80;;;;;;;;;;5073375;28;20370;-72
2020/12/12 03:52:23;;;;;;;485.52;149.88;;;;;;;;;;5073646;28;20401;-72
2020/12/12 03:54:49;;;;;;;486.23;150.03;;;;;;;;;;5073652;28;20355;-72
2020/12/12 03:57:15;;;;;;;489.00;151.65;;;;;;;;;;5073263;28;20362;-73
2020/12/12 03:59:42;;;;;;;487.90;149.55;;;;;;;;;;5072811;28;20358;-72
2020/12/12 04:02:08;;;;;;;486.88;147.90;;;;;;;;;;5073557;28;20483;-72
2020/12/12 04:04:34;;;;;;;488.50;150.82;;;;;;;;;;5073142;28;20931;-72
2020/12/12 04:07:00;;;;;;;486.42;149.30;;;;;;;;;;5073476;28;20728;-72
2020/12/12 04:09:27;;;;;;;486.17;145.80;;;;;;;;;;5073360;28;20755;-72
2020/12/12 04:11:53;;;;;;;485.13;145.80;;;;;;;;;;5073297;28;20805;-72
2020/12/12 04:14:19;;;;;;;483.60;145.35;;;;;;;;;;5072959;28;20446;-73
2020/12/12 04:16:45;;;;;;;484.42;145.18;;;;;;;;;;5072877;28;20373;-73
2020/12/12 04:19:11;;;;;;;480.67;138.82;;;;;;;;;;5073193;28;20357;-72
2020/12/12 04:21:38;;;;;;;482.42;142.70;;;;;;;;;;5072896;28;20755;-72
2020/12/12 04:24:04;;;;;;;485.45;145.20;;;;;;;;;;5072806;28;20370;-73
2020/12/12 04:26:30;;;;;;;482.55;142.38;;;;;;;;;;5072792;28;20366;-73
2020/12/12 04:28:56;;;;;;;460.35;130.25;;;;;;;;;;5072204;28;20362;-73
2020/12/12 04:31:22;;;;;;;465.98;132.25;;;;;;;;;;5072610;28;20406;-72
2020/12/12 04:33:49;;;;;;;470.17;133.90;;;;;;;;;;5072851;28;20358;-72
2020/12/12 04:36:15;;;;;;;479.03;139.77;;;;;;;;;;5072561;28;20913;-74
2020/12/12 04:38:41;;;;;;;477.97;139.37;;;;;;;;;;5072519;28;20392;-73
2020/12/12 04:41:08;;;;;;;480.50;142.60;;;;;;;;;;5072666;28;20392;-73
2020/12/12 04:43:34;;;;;;;485.45;147.07;;;;;;;;;;5072824;28;20783;-74
2020/12/12 04:46:01;;;;;;;484.23;145.00;;;;;;;;;;5072499;28;20408;-72
2020/12/12 04:48:27;;;;;;;485.98;147.23;;;;;;;;;;5072389;28;20381;-73
2020/12/12 04:50:55;;;;;;;486.58;145.52;;;;;;;;;;5072325;28;20386;-73
2020/12/12 04:53:24;;;;;;;485.40;145.93;;;;;;;;;;5072983;28;20595;-73
2020/12/12 04:55:51;;;;;;;482.47;142.70;;;;;;;;;;5072609;28;20471;-73
2020/12/12 04:58:25;;;;;;;481.83;142.38;;;;;;;;;;5072575;28;20378;-72
2020/12/12 05:00:52;;;;;;;480.92;141.05;;;;;;;;;;5072533;28;20354;-73
2020/12/12 05:03:18;;;;;;;481.42;142.45;;;;;;;;;;5072229;28;20393;-73
2020/12/12 05:05:45;;;;;;;479.67;140.77;;;;;;;;;;5072780;28;20752;-73
2020/12/12 05:08:11;;;;;;;482.65;142.35;;;;;;;;;;5072206;28;20373;-72
2020/12/12 05:10:42;;;;;;;481.60;142.75;;;;;;;;;;5071277;28;20370;-72
2020/12/12 05:13:21;;;;;;;484.40;145.02;;;;;;;;;;5072101;28;20370;-72
2020/12/12 05:15:49;;;;;;;485.00;145.80;;;;;;;;;;5072015;28;20354;-73
2020/12/12 05:18:15;;;;;;;487.10;146.10;;;;;;;;;;5072420;28;20395;-73
2020/12/12 05:20:41;;;;;;;494.25;157.27;;;;;;;;;;5072346;28;20375;-72
2020/12/12 05:23:14;;;;;;;497.52;163.50;;;;;;;;;;5071916;28;20362;-73
2020/12/12 05:25:41;;;;;;;497.13;163.48;;;;;;;;;;5071922;28;20400;-73
2020/12/12 05:28:08;;;;;;;496.90;163.93;;;;;;;;;;5071997;28;20366;-72
2020/12/12 05:30:44;;;;;;;499.88;167.25;;;;;;;;;;5072198;28;20369;-72
2020/12/12 05:33:11;;;;;;;501.95;173.02;;;;;;;;;;5072275;28;20377;-73
2020/12/12 05:35:37;;;;;;;502.38;171.85;;;;;;;;;;5072518;28;20453;-72
2020/12/12 05:38:05;;;;;;;501.38;171.30;;;;;;;;;;5071690;28;20767;-72
2020/12/12 05:40:31;;;;;;;504.25;178.90;;;;;;;;;;5071939;28;20360;-73
2020/12/12 05:43:01;;;;;;;506.85;182.30;;;;;;;;;;5071701;28;20393;-72
2020/12/12 05:45:28;;;;;;;506.00;183.98;;;;;;;;;;5072179;28;20424;-72
2020/12/12 05:47:54;;;;;;;509.63;190.45;;;;;;;;;;5072409;28;20401;-72
2020/12/12 05:50:20;;;;;;;508.93;185.03;;;;;;;;;;5071773;28;20362;-73
2020/12/12 05:52:51;;;;;;;512.22;186.98;;;;;;;;;;5072017;28;20915;-73
2020/12/12 05:55:18;;;;;;;515.67;196.27;;;;;;;;;;5072114;28;20362;-72
2020/12/12 05:57:44;;;;;;;512.35;186.93;;;;;;;;;;5072347;28;20378;-72
2020/12/12 06:00:11;;;;;;;512.72;183.73;;;;;;;;;;5071731;28;20376;-72
2020/12/12 06:02:37;;;;;;;514.05;191.45;;;;;;;;;;5072006;28;20401;-72
2020/12/12 06:05:05;;;;;;;511.33;184.25;;;;;;;;;;5071986;28;20886;-73
2020/12/12 06:07:32;;;;;;;512.13;186.73;;;;;;;;;;5071639;28;20366;-73
2020/12/12 06:10:02;;;;;;;514.07;188.07;;;;;;;;;;5071904;28;20827;-72
2020/12/12 06:12:28;;;;;;;514.17;191.50;;;;;;;;;;5071632;28;20409;-73
2020/12/12 06:14:56;;;;;;;515.03;189.68;;;;;;;;;;5071827;28;20362;-74
2020/12/12 06:17:34;;;;;;;516.13;191.30;;;;;;;;;;5072317;28;20370;-72
2020/12/12 06:20:01;;;;;;;517.15;194.35;;;;;;;;;;5071509;28;20363;-68
2020/12/12 06:22:30;;;;;;;516.78;194.73;;;;;;;;;;5073310;28;20374;-69
2020/12/12 06:25:00;;;;;;;515.72;193.90;;;;;;;;;;5075047;28;20369;-68
2020/12/12 06:27:32;;;;;;;514.10;191.30;;;;;;;;;;5075359;28;20711;-68
2020/12/12 06:30:00;;;;;;;516.13;193.40;;;;;;;;;;5074996;28;20369;-68
2020/12/12 06:32:26;;;;;;;516.10;193.40;;;;;;;;;;5075114;28;20827;-68
2020/12/12 06:34:53;;;;;;;514.70;189.57;;;;;;;;;;5075218;28;20440;-68
2020/12/12 06:37:29;;;;;;;515.22;188.25;;;;;;;;;;5074873;28;20369;-69
2020/12/12 06:39:56;;;;;;;515.70;191.77;;;;;;;;;;5074819;28;20453;-69
2020/12/12 06:42:28;;;;;;;515.25;191.13;;;;;;;;;;5074641;28;20816;-68
2020/12/12 06:44:54;;;;;;;513.55;187.10;;;;;;;;;;5075033;28;20385;-69
2020/12/12 06:47:37;;;;;;;514.38;187.15;;;;;;;;;;5074943;28;20370;-69
2020/12/12 06:50:10;;;;;;;513.13;182.32;;;;;;;;;;5075071;28;20832;-69
2020/12/12 06:52:36;;;;;;;512.47;185.60;;;;;;;;;;5074582;28;20412;-69
2020/12/12 06:55:06;;;;;;;512.45;183.52;;;;;;;;;;5074253;28;20363;-69
2020/12/12 06:57:40;;;;;;;510.27;179.00;;;;;;;;;;5075498;28;20426;-69
2020/12/12 07:00:08;;;;;;;510.67;179.75;;;;;;;;;;5075163;28;20358;-68
2020/12/12 07:02:34;;;;;;;508.60;173.52;;;;;;;;;;5075083;28;20731;-72
2020/12/12 07:05:33;;;;;;;486.83;154.40;;;;;;;;;;5074421;28;20702;-69
2020/12/12 07:08:03;;;;;;;482.83;143.23;;;;;;;;;;5030339;28;20391;-69
2020/12/12 07:10:31;;;;;;;488.92;152.10;;;;;;;;;;5074568;28;20361;-68
2020/12/12 07:12:58;;;;;;;490.90;149.68;;;;;;;;;;5074194;28;20459;-68
2020/12/12 07:15:27;;;;;;;489.70;146.13;;;;;;;;;;5074779;28;20390;-68
2020/12/12 07:17:53;;;;;;;490.55;145.73;;;;;;;;;;5074087;28;20366;-68
2020/12/12 07:20:20;;;;;;;493.23;145.50;;;;;;;;;;5074025;28;20366;-68
2020/12/12 07:22:49;;;;;;;492.25;146.55;;;;;;;;;;5074069;28;20366;-69
2020/12/12 07:25:15;;;;;;;491.02;144.10;;;;;;;;;;5074462;28;20751;-68
2020/12/12 07:27:41;;;;;;;491.15;144.88;;;;;;;;;;5074468;28;20461;-71
2020/12/12 07:30:07;;;;;;;487.60;142.83;;;;;;;;;;5073903;28;20354;-67
2020/12/12 07:32:34;;;;;;;476.83;137.70;;;;;;;;;;5073981;28;20924;-68
2020/12/12 07:35:00;;;;;;;479.55;137.68;;;;;;;;;;5073001;28;20783;-68
2020/12/12 07:37:27;;;;;;;482.80;139.10;;;;;;;;;;5073781;28;20393;-68
2020/12/12 07:39:53;;;;;;;482.75;139.45;;;;;;;;;;5073720;28;20515;-69
2020/12/12 07:42:23;;;;;;;483.02;137.80;;;;;;;;;;5073588;28;20390;-68
2020/12/12 07:44:55;;;;;;;487.08;144.35;;;;;;;;;;5073573;28;20453;-68
2020/12/12 07:47:21;;;;;;;485.20;140.20;;;;;;;;;;5073881;28;20351;-68
2020/12/12 07:49:47;;;;;;;490.70;147.13;;;;;;;;;;5074617;28;20389;-69
2020/12/12 07:52:14;;;;;;;489.15;143.60;;;;;;;;;;5073345;28;20398;-68
2020/12/12 07:54:48;;;;;;;487.70;140.70;;;;;;;;;;5073313;28;20361;-69
2020/12/12 07:57:16;;;;;;;488.85;142.25;;;;;;;;;;5073272;28;20377;-68
2020/12/12 07:59:42;;;;;;;491.10;145.30;;;;;;;;;;5073820;28;20359;-69
2020/12/12 08:02:09;;;;;;;495.60;151.30;;;;;;;;;;5073216;28;20377;-68
2020/12/12 08:04:35;;;;;;;493.17;151.87;;;;;;;;;;5073210;28;20374;-67
2020/12/12 08:07:12;;;;;;;492.90;148.52;;;;;;;;;;5073080;28;20423;-70
2020/12/12 08:09:39;;;;;;;493.60;151.25;;;;;;;;;;5072845;28;25111;-69
2020/12/12 08:12:05;;;;;;;495.92;154.43;;;;;;;;;;5073294;28;20398;-69
2020/12/12 08:14:41;;;;;;;497.40;157.20;;;;;;;;;;5072937;28;20365;-68
2020/12/12 08:17:09;;;;;;;499.55;163.80;;;;;;;;;;5073264;28;20349;-69
2020/12/12 08:19:36;;;;;;;503.45;173.23;;;;;;;;;;5072959;28;20376;-69
2020/12/12 08:22:12;;;;;;;503.23;171.63;;;;;;;;;;5072871;28;20844;-69
2020/12/12 08:24:38;;;;;;;506.02;178.50;;;;;;;;;;5073089;28;20401;-69
2020/12/12 08:27:11;;;;;;;507.10;179.23;;;;;;;;;;5073109;28;20712;-70
2020/12/12 08:29:45;;;;;;;513.45;190.82;;;;;;;;;;5073149;28;20848;-69
2020/12/12 08:32:34;;;;;;;513.95;193.23;;;;;;;;;;5072700;28;20887;-69
2020/12/12 08:35:07;;;;;;;513.55;193.20;;;;;;;;;;5073100;28;20382;-69
2020/12/12 08:37:33;;;;;;;512.88;194.55;;;;;;;;;;5073392;28;20362;-69
2020/12/12 08:40:04;;;;;;;515.90;195.73;;;;;;;;;;5075184;28;20385;-69
2020/12/12 08:42:31;;;;;;;518.03;202.23;;;;;;;;;;5073960;28;20386;-67
2020/12/12 08:45:11;;;;;;;517.85;200.02;;;;;;;;;;5079360;28;20370;-68
2020/12/12 08:47:42;;;;;;;520.38;207.25;;;;;;;;;;5090901;28;20365;-67
2020/12/12 08:50:08;;;;;;;519.72;205.93;;;;;;;;;;5080589;28;20358;-68
2020/12/12 08:52:35;;;;;;;520.30;206.73;;;;;;;;;;5072609;28;20493;-67
2020/12/12 08:55:01;;;;;;;522.50;211.35;;;;;;;;;;5073643;28;20435;-67
2020/12/12 08:57:28;;;;;;;519.20;209.05;;;;;;;;;;5072559;28;20375;-68
2020/12/12 09:00:00;;;;;;;522.72;215.32;;;;;;;;;;5072608;28;20394;-68
2020/12/12 09:02:28;;;;;;;522.38;215.55;;;;;;;;;;5072467;28;20686;-66
2020/12/12 09:05:12;;;;;;;522.70;216.70;;;;;;;;;;5072107;28;20362;-65
2020/12/12 09:07:39;;;;;;;521.83;214.23;;;;;;;;;;5072058;28;20358;-66
2020/12/12 09:10:09;;;;;;;521.03;209.17;;;;;;;;;;5072066;28;20460;-67
2020/12/12 09:12:46;;;;;;;521.85;213.80;;;;;;;;;;5072014;28;20435;-72
2020/12/12 09:15:13;;;;;;;521.40;209.55;;;;;;;;;;5072148;28;20366;-67
2020/12/12 09:17:39;;;;;;;518.13;209.10;;;;;;;;;;5072307;28;20382;-66
2020/12/12 09:20:07;;;;;;;521.25;214.65;;;;;;;;;;5072047;28;20362;-67
2020/12/12 09:22:33;;;;;;;522.80;215.85;;;;;;;;;;5071954;28;20370;-66
2020/12/12 09:25:00;;;;;;;522.63;213.93;;;;;;;;;;5071940;28;20377;-67
2020/12/12 09:27:26;;;;;;;522.75;212.57;;;;;;;;;;5071935;28;20755;-67
2020/12/12 09:29:52;;;;;;;522.00;217.65;;;;;;;;;;5072268;28;20378;-66
2020/12/12 09:32:19;;;;;;;522.35;215.65;;;;;;;;;;5072149;28;20748;-71
2020/12/12 09:34:45;;;;;;;521.55;209.10;;;;;;;;;;5071965;28;20373;-67
2020/12/12 09:37:11;;;;;;;523.10;213.53;;;;;;;;;;5072206;28;20385;-65
2020/12/12 09:39:38;;;;;;;522.07;209.33;;;;;;;;;;5071788;28;20370;-66
2020/12/12 09:42:04;;;;;;;521.25;210.02;;;;;;;;;;5071857;28;20393;-66
2020/12/12 09:44:31;;;;;;;521.65;209.40;;;;;;;;;;5071858;28;20358;-65
2020/12/12 09:46:57;;;;;;;523.60;214.18;;;;;;;;;;5071821;28;20358;-65
2020/12/12 09:49:23;;;;;;;524.42;216.98;;;;;;;;;;5072125;28;20436;-67
2020/12/12 09:51:49;;;;;;;522.38;218.32;;;;;;;;;;5071806;28;20394;-68
2020/12/12 09:54:16;;;;;;;524.65;220.38;;;;;;;;;;5072091;28;20453;-65
2020/12/12 09:56:42;;;;;;;522.47;217.00;;;;;;;;;;5072522;28;20407;-65
2020/12/12 09:59:08;;;;;;;524.33;220.80;;;;;;;;;;5075648;28;20377;-64
2020/12/12 10:01:34;;;;;;;522.90;219.33;;;;;;;;;;5075942;28;20384;-65
2020/12/12 10:04:01;;;;;;;522.28;216.52;;;;;;;;;;5075651;28;20727;-70
2020/12/12 10:06:27;;;;;;;521.95;214.25;;;;;;;;;;5075700;28;20730;-65
2020/12/12 10:08:53;;;;;;;520.58;209.68;;;;;;;;;;5075353;28;20839;-65
2020/12/12 10:11:19;;;;;;;521.60;211.25;;;;;;;;;;5075544;28;20393;-65
2020/12/12 10:13:46;;;;;;;521.38;211.40;;;;;;;;;;5075320;28;20868;-64
2020/12/12 10:16:12;;;;;;;521.80;213.85;;;;;;;;;;5075321;28;20839;-65
2020/12/12 10:18:38;;;;;;;520.67;213.07;;;;;;;;;;5075266;28;20408;-66
2020/12/12 10:21:04;;;;;;;520.83;213.68;;;;;;;;;;5075241;28;20366;-65
2020/12/12 10:23:30;;;;;;;524.55;222.93;;;;;;;;;;5075469;28;20361;-66
2020/12/12 10:25:57;;;;;;;524.75;222.48;;;;;;;;;;5075114;28;20885;-65
2020/12/12 10:28:23;;;;;;;522.53;219.75;;;;;;;;;;5075391;28;20406;-65
2020/12/12 10:30:49;;;;;;;525.70;229.55;;;;;;;;;;5075143;28;20354;-64
2020/12/12 10:33:15;;;;;;;527.47;227.38;;;;;;;;;;5074934;28;20498;-66
2020/12/12 10:35:42;;;;;;;530.45;238.73;;;;;;;;;;5074885;28;20474;-65
2020/12/12 10:38:10;;;;;;;528.22;233.95;;;;;;;;;;5075166;28;20765;-64
2020/12/12 10:40:44;;;;;;;530.60;241.70;;;;;;;;;;5074751;28;20373;-65
2020/12/12 10:43:11;;;;;;;531.40;244.27;;;;;;;;;;5074624;28;20504;-66
2020/12/12 10:45:38;;;;;;;533.38;249.70;;;;;;;;;;5075066;28;20366;-66
2020/12/12 10:48:05;;;;;;;532.70;246.98;;;;;;;;;;5074701;28;20413;-66
2020/12/12 10:50:31;;;;;;;532.83;249.15;;;;;;;;;;5074901;28;20709;-65
2020/12/12 10:52:57;;;;;;;534.22;248.90;;;;;;;;;;5074472;28;20477;-66
2020/12/12 10:55:25;;;;;;;536.42;257.65;;;;;;;;;;5074549;28;20394;-66
2020/12/12 10:57:51;;;;;;;530.50;241.27;;;;;;;;;;5074488;28;20378;-65
2020/12/12 11:00:24;;;;;;;532.80;247.55;;;;;;;;;;5072551;28;20354;-69
2020/12/12 11:02:50;;;;;;;529.53;232.02;;;;;;;;;;5074050;28;20365;-66
2020/12/12 11:05:16;;;;;;;533.70;246.20;;;;;;;;;;5074478;28;20373;-65
2020/12/12 11:07:43;;;;;;;533.92;246.00;;;;;;;;;;5073665;28;20423;-65
2020/12/12 11:10:09;;;;;;;532.35;245.25;;;;;;;;;;5073148;28;20386;-66
2020/12/12 11:12:35;;;;;;;532.00;243.85;;;;;;;;;;5074258;28;20409;-65
2020/12/12 11:15:02;;;;;;;531.07;244.17;;;;;;;;;;5074106;28;20377;-65
2020/12/12 11:17:28;;;;;;;532.67;247.35;;;;;;;;;;5073747;28;20373;-64
2020/12/12 11:19:54;;;;;;;532.70;244.50;;;;;;;;;;5074419;28;20354;-64
2020/12/12 11:22:20;;;;;;;530.42;243.00;;;;;;;;;;5074005;28;20373;-65
2020/12/12 11:24:47;;;;;;;535.13;252.63;;;;;;;;;;5073834;28;20375;-66
2020/12/12 11:27:13;;;;;;;533.07;240.27;;;;;;;;;;5074005;28;20457;-66
2020/12/12 11:29:39;;;;;;;530.80;234.25;;;;;;;;;;5073818;28;20393;-65
2020/12/12 11:32:09;;;;;;;530.57;230.63;;;;;;;;;;5073556;28;20402;-66
2020/12/12 11:34:42;;;;;;;531.50;235.43;;;;;;;;;;5074407;28;20366;-66
2020/12/12 11:47:09;;;;;;;537.30;257.05;;;;;;;;;;5093281;28;20360;-67
2020/12/12 11:49:36;;;;;;;535.22;251.95;;;;;;;;;;5093687;28;20356;-66
2020/12/12 11:52:03;;;;;;;538.25;262.05;;;;;;;;;;5093598;28;20905;-66
2020/12/12 11:54:29;;;;;;;537.50;259.92;;;;;;;;;;5092776;28;20769;-66
2020/12/12 11:56:55;;;;;;;538.33;262.48;;;;;;;;;;5093794;28;20365;-65
2020/12/12 11:59:22;;;;;;;541.20;268.52;;;;;;;;;;5093405;28;20364;-70
2020/12/12 12:01:48;;;;;;;539.63;264.90;;;;;;;;;;5092885;28;20368;-65
2020/12/12 12:04:14;;;;;;;541.47;269.83;;;;;;;;;;5093461;28;20699;-65
2020/12/12 12:06:41;;;;;;;541.30;267.30;;;;;;;;;;5093269;28;20881;-65
2020/12/12 12:11:34;;;;;;;543.95;275.20;;;;;;;;;;5093067;28;20458;-65
2020/12/12 12:14:01;;;;;;;543.00;272.40;;;;;;;;;;5093149;28;20414;-65
2020/12/12 12:16:28;;;;;;;541.05;264.90;;;;;;;;;;5092934;28;20724;-71
2020/12/12 12:18:55;;;;;;;542.33;266.67;;;;;;;;;;5092992;28;20363;-72
2020/12/12 12:21:21;;;;;;;543.38;272.88;;;;;;;;;;5092472;28;20368;-66
2020/12/12 12:23:48;;;;;;;545.35;276.60;;;;;;;;;;5093367;28;20918;-66
2020/12/12 12:26:15;;;;;;;546.78;282.13;;;;;;;;;;5093011;28;20360;-67
2020/12/12 12:28:41;;;;;;;546.38;285.05;;;;;;;;;;5093294;28;20360;-70
2020/12/12 12:31:08;;;;;;;547.75;286.50;;;;;;;;;;5092706;28;20369;-67
2020/12/12 12:33:34;;;;;;;546.27;279.80;;;;;;;;;;5093178;28;20455;-66
2020/12/12 12:36:00;;;;;;;545.38;279.42;;;;;;;;;;5093109;28;20352;-65
2020/12/12 12:38:26;;;;;;;545.50;278.80;;;;;;;;;;5092800;28;20368;-65
2020/12/12 12:40:53;;;;;;;542.13;272.52;;;;;;;;;;5092719;28;20485;-66
2020/12/12 12:43:19;;;;;;;544.13;271.63;;;;;;;;;;5092482;28;20479;-65
2020/12/12 12:45:45;;;;;;;545.00;272.25;;;;;;;;;;5090458;28;20348;-65
2020/12/12 12:48:11;;;;;;;542.88;265.95;;;;;;;;;;5092617;28;20455;-65
2020/12/12 12:50:38;;;;;;;542.35;263.42;;;;;;;;;;5092629;28;20357;-65
2020/12/12 12:53:05;;;;;;;541.08;258.08;;;;;;;;;;5092593;28;20424;-71
2020/12/12 12:55:31;;;;;;;539.35;252.88;;;;;;;;;;5092847;28;20420;-71
2020/12/12 12:57:58;;;;;;;537.40;247.20;;;;;;;;;;5092837;28;20360;-65
2020/12/12 13:00:25;;;;;;;536.15;239.07;;;;;;;;;;5092851;28;20834;-65
2020/12/12 13:02:51;;;;;;;537.88;244.75;;;;;;;;;;5092518;28;20364;-65
2020/12/12 13:05:17;;;;;;;540.25;248.50;;;;;;;;;;5092700;28;20384;-65
2020/12/12 13:07:44;;;;;;;538.35;244.55;;;;;;;;;;5092502;28;20379;-65
2020/12/12 13:10:10;;;;;;;533.80;233.60;;;;;;;;;;5092623;28;20365;-66
2020/12/12 13:12:36;;;;;;;532.88;231.77;;;;;;;;;;5092302;28;20886;-66
2020/12/12 13:15:02;;;;;;;530.78;231.77;;;;;;;;;;5092321;28;20422;-71
2020/12/12 13:17:29;;;;;;;534.90;236.55;;;;;;;;;;5092276;28;20402;-71
2020/12/12 13:22:40;;;;;;;535.40;240.00;;;;;;;;;;5092600;28;20368;-64
2020/12/12 13:25:06;;;;;;;536.67;241.53;;;;;;;;;;5092274;28;20360;-68
2020/12/12 13:27:32;;;;;;;537.70;250.85;;;;;;;;;;5092258;28;20368;-72
2020/12/12 13:30:19;;;;;;;538.40;248.40;;;;;;;;;;5092159;28;20361;-65
2020/12/12 13:32:45;;;;;;;541.17;258.15;;;;;;;;;;5095079;28;20392;-66
2020/12/12 13:35:12;;;;;;;542.80;261.80;;;;;;;;;;5096415;28;20491;-65
2020/12/12 13:37:39;;;;;;;543.28;264.75;;;;;;;;;;5096181;28;20372;-65
2020/12/12 13:40:06;;;;;;;544.13;268.38;;;;;;;;;;5096556;28;20451;-72
2020/12/12 13:42:34;;;;;;;542.90;266.90;;;;;;;;;;5095984;28;20396;-72
2020/12/12 13:45:01;;;;;;;545.40;273.67;;;;;;;;;;5096437;28;20833;-65
2020/12/12 13:47:27;;;;;;;544.42;271.42;;;;;;;;;;5096301;28;20707;-65
2020/12/12 13:49:53;;;;;;;543.80;266.20;;;;;;;;;;5096066;28;20372;-65
2020/12/12 13:52:19;;;;;;;547.35;275.27;;;;;;;;;;5096183;28;20400;-64
2020/12/12 13:54:46;;;;;;;543.75;263.65;;;;;;;;;;5096209;28;20387;-65
2020/12/12 13:57:12;;;;;;;541.72;260.33;;;;;;;;;;5095837;28;20837;-71
2020/12/12 13:59:38;;;;;;;542.35;258.98;;;;;;;;;;5095829;28;20361;-64
2020/12/12 14:02:04;;;;;;;543.05;263.17;;;;;;;;;;5095822;28;20369;-64
2020/12/12 14:04:31;;;;;;;543.55;265.45;;;;;;;;;;5095651;28;20909;-64
2020/12/12 14:07:01;;;;;;;545.65;273.13;;;;;;;;;;5095705;28;20404;-64
2020/12/12 14:23:28;;;;;;;548.53;288.77;;;;;;;;;;5095678;28;20410;-64
2020/12/12 14:28:30;;;;;;;550.25;284.92;;;;;;;;;;5095869;28;20365;-72